Scunthorpe, United Kingdom
Current Conditions -  °F | °C
As of 4:50 AM on Friday 31 Oct 2014 (Local Time) from EGNJ Reporting Station
Haze Haze  
Wind Chill: 57°   Ceiling: Unl
Heat Index: 57°   Visibility: 1.3mi
Dew Point: 55°   Wind: 12mph
Humidity: 94%   Direction: 190°S
Pressure: 29.97"   Gusts: NA
Location:  53.58°N, 0.65°W
Report Text: EGNJ 310450Z AUTO 19010KT 2100 HZ NCD 14/13 Q1015
Loading
Personal Weather Stations






























Interactive Weather Map New forecast layout! Learn more

10-Day Weather Forecast

Advertisements
Track Severe Weather on mobile